createdAt,value
2023-04-19T00:01:01.705Z,92.12
2023-04-19T00:02:03.372Z,91.21
2023-04-19T00:03:07.001Z,91.21
2023-04-19T00:04:08.881Z,90.97
2023-04-19T00:05:12.060Z,91.23
2023-04-19T00:06:15.220Z,90.42
2023-04-19T00:07:18.650Z,90.89
2023-04-19T00:08:20.300Z,90.79
2023-04-19T00:09:21.940Z,90.01
2023-04-19T00:10:23.559Z,90.25
2023-04-19T00:11:25.635Z,89.51
2023-04-19T00:12:27.240Z,89.14
2023-04-19T00:13:28.773Z,88.91
2023-04-19T00:14:30.375Z,88.54
2023-04-19T00:15:32.040Z,88.28
2023-04-19T00:16:33.597Z,87.96
2023-04-19T00:17:35.390Z,88.26
2023-04-19T00:18:38.820Z,88.20
2023-04-19T00:19:40.393Z,87.59
2023-04-19T00:20:41.909Z,87.62
2023-04-19T00:21:43.501Z,87.18
2023-04-19T00:22:45.056Z,86.94
2023-04-19T00:23:46.629Z,85.16
2023-04-19T00:24:48.131Z,85.05
2023-04-19T00:25:49.868Z,85.60
2023-04-19T00:26:51.363Z,85.60
2023-04-19T00:27:52.907Z,86.46
2023-04-19T00:28:54.850Z,86.56
2023-04-19T00:29:57.693Z,86.17
2023-04-19T00:30:59.316Z,85.49
2023-04-19T00:32:00.845Z,85.53
2023-04-19T00:33:02.558Z,86.04
2023-04-19T00:34:04.129Z,86.20
2023-04-19T00:35:06.220Z,86.01
2023-04-19T00:36:08.064Z,86.16
2023-04-19T00:37:11.056Z,86.70
2023-04-19T00:38:12.711Z,87.89
2023-04-19T00:39:15.181Z,87.98
2023-04-19T00:40:16.721Z,88.09
2023-04-19T00:41:18.298Z,88.08
2023-04-19T00:42:19.836Z,88.35
2023-04-19T00:43:21.383Z,88.41
2023-04-19T00:44:23.632Z,88.99
2023-04-19T00:45:26.283Z,89.02
2023-04-19T00:46:27.991Z,88.47
2023-04-19T00:47:30.550Z,88.72
2023-04-19T00:48:32.243Z,88.39
2023-04-19T00:49:34.070Z,88.00
2023-04-19T00:50:36.175Z,87.58
2023-04-19T00:51:38.322Z,86.87
2023-04-19T00:52:40.405Z,87.14
2023-04-19T00:53:42.077Z,87.98
2023-04-19T00:54:45.234Z,88.21
2023-04-19T00:55:48.044Z,87.96
2023-04-19T00:56:50.141Z,88.10
2023-04-19T00:57:52.249Z,88.59
2023-04-19T00:58:54.438Z,88.94
2023-04-19T00:59:57.183Z,88.63
2023-04-19T01:00:59.993Z,89.19
2023-04-19T01:02:02.072Z,88.62
2023-04-19T01:03:04.334Z,88.16
2023-04-19T01:04:06.488Z,88.49
2023-04-19T01:05:08.598Z,89.07
2023-04-19T01:06:10.400Z,89.03
2023-04-19T01:07:11.967Z,89.33
2023-04-19T01:08:13.555Z,89.33
2023-04-19T01:09:15.294Z,88.65
2023-04-19T01:10:16.926Z,88.53
2023-04-19T01:11:18.441Z,88.69
2023-04-19T01:12:20.171Z,88.30
2023-04-19T01:13:21.982Z,88.48
2023-04-19T01:14:23.557Z,88.71
2023-04-19T01:15:25.095Z,88.57
2023-04-19T01:16:28.059Z,88.75
2023-04-19T01:17:32.189Z,87.59
2023-04-19T01:18:37.494Z,87.95
2023-04-19T01:19:39.412Z,87.93
2023-04-19T01:20:41.008Z,87.51
2023-04-19T01:21:43.825Z,87.23
2023-04-19T01:22:45.583Z,86.45
2023-04-19T01:23:47.150Z,86.64
2023-04-19T01:24:48.706Z,86.92
2023-04-19T01:25:50.294Z,86.76
2023-04-19T01:26:51.887Z,86.10
2023-04-19T01:27:53.403Z,87.02
2023-04-19T01:28:55.034Z,86.91
2023-04-19T01:29:56.641Z,86.71
2023-04-19T01:30:58.283Z,86.13
2023-04-19T01:31:59.836Z,84.29
2023-04-19T01:33:01.469Z,83.92
2023-04-19T01:34:03.013Z,83.19
2023-04-19T01:35:05.180Z,83.91
2023-04-19T01:36:07.270Z,84.90
2023-04-19T01:37:09.172Z,85.43
2023-04-19T01:38:10.892Z,85.38
2023-04-19T01:39:12.439Z,85.98
2023-04-19T01:40:14.290Z,85.68
2023-04-19T01:41:16.047Z,86.08
2023-04-19T01:42:17.620Z,86.40
2023-04-19T01:43:19.147Z,87.74
2023-04-19T01:44:20.699Z,87.71
2023-04-19T01:45:22.260Z,87.22
2023-04-19T01:46:23.965Z,87.86
2023-04-19T01:47:25.846Z,87.72
2023-04-19T01:48:27.455Z,87.07
2023-04-19T01:49:29.036Z,87.60
2023-04-19T01:50:31.897Z,87.39
2023-04-19T01:51:33.406Z,87.66
2023-04-19T01:52:34.915Z,87.18
2023-04-19T01:53:36.438Z,87.07
2023-04-19T01:54:37.948Z,86.74
2023-04-19T01:55:39.646Z,86.82
2023-04-19T01:56:41.239Z,86.96
2023-04-19T01:57:42.782Z,86.35
2023-04-19T01:58:44.281Z,86.16
2023-04-19T01:59:45.817Z,85.90
2023-04-19T02:00:47.447Z,86.12
2023-04-19T02:01:49.032Z,85.58
2023-04-19T02:02:50.800Z,85.40
2023-04-19T02:03:52.584Z,84.61
2023-04-19T02:04:54.360Z,84.98
2023-04-19T02:05:55.926Z,85.92
2023-04-19T02:06:57.441Z,85.89
2023-04-19T02:07:59.008Z,85.69
2023-04-19T02:09:00.631Z,86.06
2023-04-19T02:10:02.307Z,84.96
2023-04-19T02:11:10.419Z,85.04
2023-04-19T02:12:11.943Z,85.02
2023-04-19T02:13:13.470Z,85.28
2023-04-19T02:14:15.258Z,85.01
2023-04-19T02:15:17.020Z,85.65
2023-04-19T02:16:19.048Z,84.83
2023-04-19T02:17:20.631Z,84.74
2023-04-19T02:18:22.514Z,84.78
2023-04-19T02:19:24.302Z,84.80
2023-04-19T02:20:25.823Z,85.20
2023-04-19T02:21:27.632Z,85.09
2023-04-19T02:22:29.149Z,86.21
2023-04-19T02:23:30.839Z,85.43
2023-04-19T02:24:32.371Z,84.16
2023-04-19T02:25:34.000Z,84.68
2023-04-19T02:26:35.566Z,84.09
2023-04-19T02:27:37.085Z,84.73
2023-04-19T02:28:39.284Z,84.68
2023-04-19T02:29:41.175Z,84.59
2023-04-19T02:30:42.965Z,84.79
2023-04-19T02:31:46.547Z,84.90
2023-04-19T02:32:49.320Z,85.02
2023-04-19T02:33:50.899Z,86.08
2023-04-19T02:34:52.442Z,85.84
2023-04-19T02:35:54.015Z,85.63
2023-04-19T02:36:55.578Z,85.91
2023-04-19T02:37:57.143Z,84.99
2023-04-19T02:38:59.370Z,85.78
2023-04-19T02:40:00.912Z,86.40
2023-04-19T02:41:04.424Z,85.74
2023-04-19T02:42:06.035Z,85.30
2023-04-19T02:43:07.644Z,85.15
2023-04-19T02:44:09.238Z,84.80
2023-04-19T02:45:10.990Z,85.17
2023-04-19T02:46:12.578Z,85.24
2023-04-19T02:47:14.162Z,85.59
2023-04-19T02:48:15.791Z,85.38
2023-04-19T02:49:17.809Z,85.23
2023-04-19T02:50:19.340Z,84.82
2023-04-19T02:51:20.924Z,85.09
2023-04-19T02:52:22.495Z,85.57
2023-04-19T02:53:24.153Z,85.65
2023-04-19T02:54:25.732Z,85.84
2023-04-19T02:55:27.328Z,85.56
2023-04-19T02:56:28.944Z,85.49
2023-04-19T02:57:30.664Z,86.10
2023-04-19T02:58:32.202Z,86.82
2023-04-19T02:59:34.013Z,87.79
2023-04-19T03:00:35.848Z,86.71
2023-04-19T03:01:37.633Z,87.14
2023-04-19T03:02:39.617Z,87.15
2023-04-19T03:03:41.400Z,87.34
2023-04-19T03:04:43.640Z,87.24
2023-04-19T03:05:45.314Z,87.77
2023-04-19T03:06:46.854Z,87.77
2023-04-19T03:07:48.394Z,86.76
2023-04-19T03:08:50.137Z,85.78
2023-04-19T03:09:51.664Z,85.10
2023-04-19T03:10:53.210Z,85.27
2023-04-19T03:11:54.876Z,85.49
2023-04-19T03:12:56.423Z,85.34
2023-04-19T03:13:57.949Z,85.04
2023-04-19T03:14:59.484Z,85.32
2023-04-19T03:16:01.055Z,85.23
2023-04-19T03:17:03.236Z,85.43
2023-04-19T03:18:04.922Z,86.35
2023-04-19T03:19:06.491Z,85.84
2023-04-19T03:20:11.945Z,85.85
2023-04-19T03:21:13.445Z,86.43
2023-04-19T03:22:15.019Z,86.31
2023-04-19T03:23:16.650Z,86.57
2023-04-19T03:24:28.089Z,86.70
2023-04-19T03:25:29.687Z,86.84
2023-04-19T03:26:31.444Z,87.04
2023-04-19T03:27:37.125Z,87.64
2023-04-19T03:28:38.692Z,87.18
2023-04-19T03:29:40.453Z,87.09
2023-04-19T03:30:42.376Z,87.21
2023-04-19T03:31:44.044Z,87.76
2023-04-19T03:32:48.211Z,87.72
2023-04-19T03:33:49.802Z,88.39
2023-04-19T03:34:51.356Z,88.61
2023-04-19T03:35:52.854Z,88.26
2023-04-19T03:36:55.196Z,88.50
2023-04-19T03:37:56.744Z,87.74
2023-04-19T03:38:58.336Z,87.14
2023-04-19T03:39:59.986Z,87.28
2023-04-19T03:41:01.535Z,87.06
2023-04-19T03:42:03.120Z,87.15
2023-04-19T03:43:04.762Z,87.29
2023-04-19T03:44:06.372Z,86.81
2023-04-19T03:45:08.408Z,87.45
2023-04-19T03:46:10.052Z,88.19
2023-04-19T03:47:11.701Z,88.44
2023-04-19T03:48:13.324Z,88.33
2023-04-19T03:49:15.170Z,88.78
2023-04-19T03:50:16.818Z,89.32
2023-04-19T03:51:18.770Z,89.85
2023-04-19T03:52:20.362Z,89.84
2023-04-19T03:53:21.947Z,90.10
2023-04-19T03:54:23.528Z,89.27
2023-04-19T03:55:25.058Z,88.89
2023-04-19T03:56:26.573Z,88.84
2023-04-19T03:57:28.127Z,88.79
2023-04-19T03:58:29.649Z,89.26
2023-04-19T03:59:31.388Z,88.78
2023-04-19T04:00:32.895Z,90.08
2023-04-19T04:01:34.479Z,89.59
2023-04-19T04:02:39.838Z,89.13
2023-04-19T04:03:41.826Z,89.20
2023-04-19T04:04:43.810Z,89.34
2023-04-19T04:05:45.598Z,90.15
2023-04-19T04:06:47.101Z,90.29
2023-04-19T04:07:48.649Z,90.70
2023-04-19T04:08:50.379Z,90.00
2023-04-19T04:09:51.936Z,89.27
2023-04-19T04:10:54.830Z,89.69
2023-04-19T04:11:56.409Z,90.07
2023-04-19T04:12:57.934Z,89.43
2023-04-19T04:13:59.550Z,90.95
2023-04-19T04:15:01.245Z,94.80
2023-04-19T04:16:03.036Z,95.86
2023-04-19T04:17:07.036Z,93.79
2023-04-19T04:18:09.188Z,93.21
2023-04-19T04:19:10.848Z,92.28
2023-04-19T04:20:13.649Z,91.26
2023-04-19T04:21:15.267Z,92.93
2023-04-19T04:22:17.311Z,92.57
2023-04-19T04:23:21.463Z,93.23
2023-04-19T04:24:22.988Z,92.65
2023-04-19T04:25:25.946Z,92.13
2023-04-19T04:26:30.800Z,92.63
2023-04-19T04:27:33.303Z,92.42
2023-04-19T04:28:34.866Z,91.93
2023-04-19T04:29:37.460Z,91.74
2023-04-19T04:30:40.913Z,91.06
2023-04-19T04:31:42.719Z,90.25
2023-04-19T04:32:45.106Z,90.51
2023-04-19T04:33:46.709Z,90.34
2023-04-19T04:34:51.374Z,91.63
2023-04-19T04:35:54.205Z,91.67
2023-04-19T04:36:55.861Z,91.44
2023-04-19T04:37:57.408Z,93.35
2023-04-19T04:39:01.962Z,98.15
2023-04-19T04:40:08.162Z,97.41
2023-04-19T04:41:12.194Z,94.60
2023-04-19T04:42:13.723Z,92.19
2023-04-19T04:43:15.250Z,91.39
2023-04-19T04:44:16.786Z,90.82
2023-04-19T04:45:18.665Z,89.27
2023-04-19T04:46:20.384Z,88.81
2023-04-19T04:47:22.023Z,88.12
2023-04-19T04:48:24.243Z,87.52
2023-04-19T04:49:27.866Z,86.65
2023-04-19T04:50:29.620Z,86.50
2023-04-19T04:51:32.441Z,86.07
2023-04-19T04:52:34.237Z,83.99
2023-04-19T04:53:35.800Z,83.66
2023-04-19T04:54:37.342Z,83.91
2023-04-19T04:55:38.924Z,83.94
2023-04-19T04:56:40.730Z,83.90
2023-04-19T04:57:42.256Z,84.06
2023-04-19T04:58:43.760Z,83.91
2023-04-19T04:59:46.324Z,83.83
2023-04-19T05:00:49.137Z,83.37
2023-04-19T05:01:50.853Z,83.60
2023-04-19T05:02:52.544Z,85.17
2023-04-19T05:03:54.170Z,85.45
2023-04-19T05:04:55.960Z,84.90
2023-04-19T05:05:57.741Z,84.12
2023-04-19T05:06:59.319Z,84.58
2023-04-19T05:08:01.295Z,83.98
2023-04-19T05:09:03.348Z,83.89
2023-04-19T05:10:05.353Z,83.77
2023-04-19T05:11:06.965Z,83.54
2023-04-19T05:12:08.491Z,83.71
2023-04-19T05:13:10.044Z,83.20
2023-04-19T05:14:12.850Z,83.82
2023-04-19T05:15:14.557Z,83.35
2023-04-19T05:16:16.297Z,82.96
2023-04-19T05:17:17.896Z,82.97
2023-04-19T05:18:19.445Z,83.46
2023-04-19T05:19:21.012Z,83.25
2023-04-19T05:20:22.645Z,83.30
2023-04-19T05:21:24.252Z,83.17
2023-04-19T05:22:26.490Z,83.12
2023-04-19T05:23:28.020Z,82.97
2023-04-19T05:24:29.708Z,83.10
2023-04-19T05:25:31.299Z,82.43
2023-04-19T05:26:38.431Z,81.73
2023-04-19T05:27:40.116Z,81.65
2023-04-19T05:28:42.342Z,81.19
2023-04-19T05:29:43.933Z,81.43
2023-04-19T05:30:45.878Z,81.12
2023-04-19T05:31:47.549Z,81.44
2023-04-19T05:32:49.410Z,81.70
2023-04-19T05:33:50.952Z,81.13
2023-04-19T05:34:52.502Z,80.86
2023-04-19T05:35:54.052Z,80.77
2023-04-19T05:36:55.887Z,80.88
2023-04-19T05:37:57.478Z,80.97
2023-04-19T05:38:59.040Z,81.41
2023-04-19T05:40:00.735Z,81.18
2023-04-19T05:41:03.778Z,81.15
2023-04-19T05:42:05.424Z,80.45
2023-04-19T05:43:07.044Z,80.80
2023-04-19T05:44:08.618Z,81.45
2023-04-19T05:45:10.679Z,81.79
2023-04-19T05:46:12.256Z,81.64
2023-04-19T05:47:13.987Z,81.97
2023-04-19T05:48:15.550Z,81.80
2023-04-19T05:49:17.115Z,81.45
2023-04-19T05:50:20.631Z,81.26
2023-04-19T05:51:22.217Z,80.06
2023-04-19T05:52:23.803Z,79.69
2023-04-19T05:53:25.477Z,80.09
2023-04-19T05:54:29.229Z,79.57
2023-04-19T05:55:31.108Z,80.30
2023-04-19T05:56:32.858Z,80.71
2023-04-19T05:57:34.746Z,80.98
2023-04-19T05:58:36.785Z,80.07
2023-04-19T05:59:38.402Z,80.53
2023-04-19T06:00:40.048Z,80.29
2023-04-19T06:01:41.669Z,79.77
2023-04-19T06:02:44.719Z,79.69
2023-04-19T06:03:46.996Z,79.80
2023-04-19T06:04:49.605Z,80.22
2023-04-19T06:05:51.388Z,80.53
2023-04-19T06:06:53.496Z,80.74
2023-04-19T06:08:02.559Z,80.88
2023-04-19T06:09:04.831Z,81.17
2023-04-19T06:10:07.261Z,80.94
2023-04-19T06:11:20.277Z,81.04
2023-04-19T06:12:28.398Z,80.27
2023-04-19T06:13:29.999Z,80.69
2023-04-19T06:14:31.611Z,80.83
2023-04-19T06:15:33.234Z,80.57
2023-04-19T06:16:34.821Z,80.38
2023-04-19T06:17:36.448Z,79.80
2023-04-19T06:18:38.030Z,78.91
2023-04-19T06:19:39.616Z,79.68
2023-04-19T06:20:41.275Z,79.91
2023-04-19T06:21:43.089Z,80.95
2023-04-19T06:22:48.873Z,81.04
2023-04-19T06:23:50.504Z,80.77
2023-04-19T06:24:52.070Z,80.90
2023-04-19T06:25:53.632Z,80.14
2023-04-19T06:26:55.184Z,80.96
2023-04-19T06:27:56.785Z,81.93
2023-04-19T06:28:58.397Z,81.42
2023-04-19T06:30:01.035Z,79.96
2023-04-19T06:31:02.886Z,80.22
2023-04-19T06:32:04.782Z,78.90
2023-04-19T06:33:06.536Z,78.21
2023-04-19T06:34:08.113Z,77.07
2023-04-19T06:35:09.946Z,75.40
2023-04-19T06:36:11.574Z,74.27
2023-04-19T06:37:13.208Z,73.88
2023-04-19T06:38:14.774Z,73.17
2023-04-19T06:39:17.913Z,73.03
2023-04-19T06:40:19.558Z,73.82
2023-04-19T06:41:21.114Z,71.42
2023-04-19T06:42:23.561Z,71.63
2023-04-19T06:43:25.770Z,70.10
2023-04-19T06:44:27.938Z,69.00
2023-04-19T06:45:29.909Z,69.79
2023-04-19T06:46:31.782Z,71.07
2023-04-19T06:47:37.051Z,70.75
2023-04-19T06:48:38.824Z,71.79
2023-04-19T06:49:40.363Z,71.98
2023-04-19T06:50:41.953Z,71.66
2023-04-19T06:51:43.585Z,70.71
2023-04-19T06:52:45.147Z,69.87
2023-04-19T06:53:46.736Z,68.67
2023-04-19T06:54:49.400Z,69.63
2023-04-19T06:55:57.829Z,70.02
2023-04-19T06:56:59.345Z,70.77
2023-04-19T06:58:01.013Z,71.22
2023-04-19T06:59:02.727Z,70.78
2023-04-19T07:00:06.985Z,72.16
2023-04-19T07:01:08.720Z,72.53
2023-04-19T07:02:10.567Z,73.16
2023-04-19T07:03:12.304Z,73.34
2023-04-19T07:04:14.887Z,73.30
2023-04-19T07:05:17.173Z,71.73
2023-04-19T07:06:18.679Z,72.36
2023-04-19T07:07:20.248Z,71.78
2023-04-19T07:08:23.470Z,72.46
2023-04-19T07:09:25.222Z,74.26
2023-04-19T07:10:26.942Z,75.31
2023-04-19T07:11:28.603Z,74.79
2023-04-19T07:12:30.152Z,75.18
2023-04-19T07:13:31.782Z,76.83
2023-04-19T07:14:33.732Z,76.74
2023-04-19T07:15:35.558Z,74.38
2023-04-19T07:16:37.504Z,74.63
2023-04-19T07:17:39.162Z,76.10
2023-04-19T07:18:41.264Z,76.99
2023-04-19T07:19:47.654Z,76.70
2023-04-19T07:20:49.592Z,76.19
2023-04-19T07:21:51.378Z,76.30
2023-04-19T07:22:52.931Z,76.73
2023-04-19T07:23:54.512Z,76.40
2023-04-19T07:24:56.126Z,75.91
2023-04-19T07:25:57.682Z,75.99
2023-04-19T07:26:59.356Z,77.44
2023-04-19T07:28:00.923Z,77.02
2023-04-19T07:29:03.246Z,77.18
2023-04-19T07:30:05.300Z,76.76
2023-04-19T07:31:06.888Z,76.81
2023-04-19T07:32:08.760Z,77.86
2023-04-19T07:33:10.998Z,77.62
2023-04-19T07:34:12.620Z,76.66
2023-04-19T07:35:14.206Z,75.84
2023-04-19T07:36:15.846Z,74.30
2023-04-19T07:37:17.591Z,75.75
2023-04-19T07:38:19.308Z,73.71
2023-04-19T07:39:20.904Z,74.50
2023-04-19T07:40:22.495Z,75.34
2023-04-19T07:41:24.023Z,74.87
2023-04-19T07:42:26.017Z,74.18
2023-04-19T07:43:30.313Z,75.85
2023-04-19T07:44:32.393Z,75.82
2023-04-19T07:45:34.138Z,73.51
2023-04-19T07:46:35.781Z,74.21
2023-04-19T07:47:37.492Z,74.77
2023-04-19T07:48:39.170Z,76.39
2023-04-19T07:49:40.772Z,76.36
2023-04-19T07:50:42.298Z,75.70
2023-04-19T07:51:43.873Z,76.04
2023-04-19T07:52:45.510Z,76.44
2023-04-19T07:53:47.683Z,74.42
2023-04-19T07:54:49.294Z,74.63
2023-04-19T07:55:51.206Z,74.62
2023-04-19T07:56:52.860Z,75.11
2023-04-19T07:57:54.490Z,76.49
2023-04-19T07:59:06.725Z,75.47
2023-04-19T08:00:10.508Z,73.84
2023-04-19T08:01:12.240Z,73.90
2023-04-19T08:02:14.088Z,73.01
2023-04-19T08:03:16.068Z,71.84
2023-04-19T08:04:20.227Z,69.85
2023-04-19T08:05:23.490Z,69.02
2023-04-19T08:06:26.999Z,71.39
2023-04-19T08:07:28.639Z,67.54
2023-04-19T08:08:30.831Z,70.94
2023-04-19T08:09:34.436Z,73.17
2023-04-19T08:10:36.043Z,69.72
2023-04-19T08:11:37.575Z,69.71
2023-04-19T08:12:47.339Z,68.93
2023-04-19T08:14:26.023Z,69.33
2023-04-19T08:15:38.126Z,71.11
2023-04-19T08:17:19.555Z,68.00
2023-04-19T08:18:05.163Z,67.88
2023-04-19T08:19:06.976Z,68.76
2023-04-19T08:20:11.051Z,69.54
2023-04-19T08:21:12.574Z,71.19
2023-04-19T08:22:14.139Z,71.01
2023-04-19T08:23:23.948Z,69.20
2023-04-19T08:24:30.360Z,62.78
2023-04-19T08:25:32.324Z,66.38
2023-04-19T08:26:33.871Z,68.25
2023-04-19T08:27:35.870Z,69.70
2023-04-19T08:28:37.459Z,69.00
2023-04-19T08:29:39.851Z,66.69
2023-04-19T08:30:41.463Z,65.01
2023-04-19T08:31:44.517Z,64.97
2023-04-19T08:32:46.433Z,61.35
2023-04-19T08:33:48.225Z,61.53
2023-04-19T08:34:50.016Z,61.06
2023-04-19T08:35:51.655Z,62.48
2023-04-19T08:37:03.607Z,61.68
2023-04-19T08:38:05.793Z,62.78
2023-04-19T08:39:14.809Z,64.95
2023-04-19T08:40:31.603Z,65.18
2023-04-19T08:41:33.171Z,63.39
2023-04-19T08:42:36.795Z,62.33
2023-04-19T08:43:41.734Z,60.46
2023-04-19T08:44:59.694Z,59.99
2023-04-19T08:46:07.920Z,62.59
2023-04-19T08:47:15.228Z,62.25
2023-04-19T08:48:23.795Z,61.24
2023-04-19T08:49:26.057Z,63.58
2023-04-19T08:50:35.412Z,65.07
2023-04-19T08:51:43.304Z,63.83
2023-04-19T08:52:54.929Z,62.74
2023-04-19T08:54:01.120Z,62.40
2023-04-19T08:55:08.449Z,58.75
2023-04-19T08:56:18.090Z,57.70
2023-04-19T08:57:32.163Z,58.53
2023-04-19T08:59:39.379Z,58.27
2023-04-19T09:00:41.485Z,57.55
2023-04-19T09:01:44.766Z,55.86
2023-04-19T09:02:51.487Z,56.36
2023-04-19T09:04:06.706Z,56.44
2023-04-19T09:05:13.828Z,55.51
2023-04-19T09:06:15.956Z,55.73
2023-04-19T09:07:27.850Z,56.25
2023-04-19T09:08:32.659Z,56.22
2023-04-19T09:09:41.047Z,54.89
2023-04-19T09:10:59.318Z,53.17
2023-04-19T09:12:00.866Z,55.02
2023-04-19T09:13:04.584Z,54.22
2023-04-19T09:14:11.190Z,55.57
2023-04-19T09:15:12.788Z,55.03
2023-04-19T09:16:25.221Z,51.50
2023-04-19T09:17:27.004Z,52.23
2023-04-19T09:18:31.416Z,50.05
2023-04-19T09:19:54.966Z,50.84
2023-04-19T09:21:00.423Z,50.93
2023-04-19T09:22:13.445Z,49.86
2023-04-19T09:23:18.750Z,48.00
2023-04-19T09:25:04.340Z,48.38
2023-04-19T09:26:22.191Z,48.81
2023-04-19T09:27:33.938Z,48.80
2023-04-19T09:28:35.529Z,48.59
2023-04-19T09:29:37.093Z,49.55
2023-04-19T09:30:46.916Z,48.83
2023-04-19T09:32:00.080Z,48.96
2023-04-19T09:33:01.890Z,47.62
2023-04-19T09:34:14.739Z,48.50
2023-04-19T09:35:16.725Z,47.76
2023-04-19T09:36:31.904Z,49.59
2023-04-19T09:38:01.368Z,47.25
2023-04-19T09:38:55.162Z,47.96
2023-04-19T09:39:57.046Z,47.16
2023-04-19T09:41:08.919Z,47.20
2023-04-19T09:42:10.462Z,47.08
2023-04-19T09:43:45.285Z,48.36
2023-04-19T09:45:12.544Z,47.44
2023-04-19T09:45:56.657Z,46.87
2023-04-19T09:46:58.261Z,47.63
2023-04-19T09:48:05.200Z,48.53
2023-04-19T09:49:41.620Z,45.69
2023-04-19T09:51:02.536Z,47.27
2023-04-19T09:52:07.399Z,47.48
2023-04-19T09:53:10.811Z,47.09
2023-04-19T09:54:13.874Z,48.50
2023-04-19T09:55:26.850Z,47.35
2023-04-19T09:56:30.634Z,48.18
2023-04-19T09:57:33.717Z,49.34
2023-04-19T09:58:48.996Z,47.00
2023-04-19T09:59:52.578Z,48.20
2023-04-19T10:01:06.570Z,46.94
2023-04-19T10:02:14.924Z,45.12
2023-04-19T10:03:17.953Z,47.38
2023-04-19T10:04:32.679Z,49.10
2023-04-19T10:05:41.541Z,48.95
2023-04-19T10:07:07.001Z,50.06
2023-04-19T10:08:07.993Z,52.69
2023-04-19T10:09:10.820Z,51.92
2023-04-19T10:10:20.437Z,52.65
2023-04-19T10:11:26.889Z,53.27
2023-04-19T10:12:58.466Z,54.15
2023-04-19T10:13:59.944Z,55.00
2023-04-19T10:15:01.635Z,54.19
2023-04-19T10:16:15.543Z,54.35
2023-04-19T10:17:21.022Z,56.82
2023-04-19T10:18:23.256Z,55.96
2023-04-19T10:19:25.696Z,54.96
2023-04-19T10:20:42.158Z,54.49
2023-04-19T10:21:46.539Z,55.19
2023-04-19T10:22:48.740Z,53.90
2023-04-19T10:23:50.695Z,53.90
2023-04-19T10:25:17.674Z,54.03
2023-04-19T10:26:19.499Z,55.13
2023-04-19T10:27:25.765Z,55.25
2023-04-19T10:28:34.186Z,53.97
2023-04-19T10:29:55.697Z,55.39
2023-04-19T10:31:02.643Z,55.71
2023-04-19T10:32:06.222Z,55.88
2023-04-19T10:33:07.997Z,56.11
2023-04-19T10:34:12.698Z,56.54
2023-04-19T10:35:24.710Z,56.12
2023-04-19T10:36:27.725Z,54.85
2023-04-19T10:37:31.813Z,56.36
2023-04-19T10:38:37.629Z,57.07
2023-04-19T10:39:45.805Z,56.69
2023-04-19T10:41:01.679Z,54.38
2023-04-19T10:42:03.320Z,52.89
2023-04-19T10:43:10.676Z,52.25
2023-04-19T10:44:12.354Z,54.31
2023-04-19T10:45:35.997Z,54.43
2023-04-19T10:46:41.989Z,55.18
2023-04-19T10:47:46.592Z,55.33
2023-04-19T10:48:57.123Z,54.56
2023-04-19T10:49:58.734Z,54.48
2023-04-19T10:51:16.041Z,55.16
2023-04-19T10:52:29.567Z,55.21
2023-04-19T10:54:00.844Z,54.53
2023-04-19T10:55:06.054Z,54.30
2023-04-19T10:56:07.644Z,55.20
2023-04-19T10:57:11.259Z,54.20
2023-04-19T10:58:13.134Z,54.56
2023-04-19T10:59:21.516Z,53.53
2023-04-19T11:00:25.750Z,53.58
2023-04-19T11:01:46.269Z,55.57
2023-04-19T11:02:47.981Z,57.02
2023-04-19T11:03:49.692Z,54.61
2023-04-19T11:04:51.242Z,55.50
2023-04-19T11:06:23.051Z,55.51
2023-04-19T11:07:25.001Z,55.09
2023-04-19T11:08:26.826Z,56.34
2023-04-19T11:09:30.817Z,56.92
2023-04-19T11:10:32.384Z,55.29
2023-04-19T11:11:37.392Z,55.68
2023-04-19T11:12:43.278Z,54.33
2023-04-19T11:13:47.242Z,53.31
2023-04-19T11:15:00.153Z,55.11
2023-04-19T11:16:08.369Z,55.80
2023-04-19T11:17:19.098Z,54.29
2023-04-19T11:18:20.728Z,53.59
2023-04-19T11:19:22.361Z,52.03
2023-04-19T11:20:24.519Z,51.45
2023-04-19T11:21:29.913Z,52.54
2023-04-19T11:22:35.447Z,50.78
2023-04-19T11:23:36.966Z,51.74
2023-04-19T11:24:38.525Z,52.47
2023-04-19T11:25:40.202Z,54.13
2023-04-19T11:26:46.134Z,55.63
2023-04-19T11:27:50.002Z,55.91
2023-04-19T11:28:53.111Z,54.98
2023-04-19T11:30:03.281Z,54.35
2023-04-19T11:31:05.500Z,54.46
2023-04-19T11:32:07.585Z,54.24
2023-04-19T11:33:12.581Z,52.04
2023-04-19T11:34:14.437Z,51.03
2023-04-19T11:35:20.733Z,51.11
2023-04-19T11:36:22.369Z,51.23
2023-04-19T11:37:24.012Z,51.97
2023-04-19T11:38:28.338Z,52.37
2023-04-19T11:39:30.228Z,52.39
2023-04-19T11:40:32.174Z,52.84
2023-04-19T11:41:39.832Z,53.50
2023-04-19T11:42:41.490Z,53.70
2023-04-19T11:43:45.309Z,54.55
2023-04-19T11:44:51.767Z,55.83
2023-04-19T11:45:54.262Z,56.19
2023-04-19T11:47:05.194Z,56.66
2023-04-19T11:48:10.035Z,56.40
2023-04-19T11:49:25.764Z,57.19
2023-04-19T11:50:46.034Z,58.11
2023-04-19T11:51:47.589Z,58.33
2023-04-19T11:52:49.572Z,58.33
2023-04-19T11:53:51.134Z,59.20
2023-04-19T11:54:53.769Z,59.22
2023-04-19T11:56:08.582Z,59.92
2023-04-19T11:57:10.118Z,60.02
2023-04-19T11:58:33.484Z,61.80
2023-04-19T11:59:36.454Z,65.64
2023-04-19T12:00:38.210Z,67.68
2023-04-19T12:01:41.393Z,70.25
2023-04-19T12:02:44.838Z,71.91
2023-04-19T12:03:49.752Z,70.96
2023-04-19T12:04:52.124Z,73.03
2023-04-19T12:06:17.881Z,72.13
2023-04-19T12:07:19.416Z,67.96
2023-04-19T12:08:32.095Z,70.08
2023-04-19T12:09:37.033Z,70.32
2023-04-19T12:10:38.600Z,67.98
2023-04-19T12:11:49.922Z,69.95
2023-04-19T12:12:51.508Z,65.40
2023-04-19T12:14:10.654Z,64.86
2023-04-19T12:15:12.252Z,65.67
2023-04-19T12:16:14.162Z,66.17
2023-04-19T12:17:15.921Z,64.42
2023-04-19T12:18:17.600Z,65.64
2023-04-19T12:19:20.436Z,65.20
2023-04-19T12:20:33.048Z,67.07
2023-04-19T12:21:34.558Z,66.80
2023-04-19T12:22:36.239Z,65.07
2023-04-19T12:23:37.842Z,64.92
2023-04-19T12:24:40.862Z,64.68
2023-04-19T12:25:44.652Z,62.83
2023-04-19T12:26:57.379Z,62.22
2023-04-19T12:28:01.105Z,64.11
2023-04-19T12:29:03.695Z,65.92
2023-04-19T12:30:05.936Z,68.57
2023-04-19T12:31:07.541Z,68.99
2023-04-19T12:32:10.882Z,66.74
2023-04-19T12:33:12.787Z,68.82
2023-04-19T12:34:14.396Z,68.17
2023-04-19T12:35:15.987Z,69.33
2023-04-19T12:36:17.642Z,70.23
2023-04-19T12:37:19.185Z,71.36
2023-04-19T12:38:20.851Z,72.50
2023-04-19T12:39:22.997Z,71.37
2023-04-19T12:40:25.782Z,70.21
2023-04-19T12:41:27.426Z,70.21
2023-04-19T12:42:29.296Z,70.36
2023-04-19T12:43:31.977Z,70.21
2023-04-19T12:44:33.601Z,68.99
2023-04-19T12:45:35.266Z,68.67
2023-04-19T12:46:37.074Z,69.85
2023-04-19T12:47:42.058Z,71.13
2023-04-19T12:48:43.615Z,68.57
2023-04-19T12:49:45.272Z,68.54
2023-04-19T12:50:46.823Z,69.96
2023-04-19T12:51:48.437Z,70.22
2023-04-19T12:52:53.228Z,69.03
2023-04-19T12:53:54.845Z,68.34
2023-04-19T12:54:56.542Z,69.53
2023-04-19T12:55:58.650Z,69.97
2023-04-19T12:57:03.270Z,69.81
2023-04-19T12:58:05.043Z,68.91
2023-04-19T12:59:06.619Z,65.06
2023-04-19T13:00:10.591Z,66.34
2023-04-19T13:01:12.212Z,68.67
2023-04-19T13:02:13.895Z,66.90
2023-04-19T13:03:16.411Z,66.61
2023-04-19T13:04:18.388Z,67.77
2023-04-19T13:05:20.811Z,67.81
2023-04-19T13:06:22.318Z,67.45
2023-04-19T13:07:23.882Z,68.40
2023-04-19T13:08:41.074Z,62.95
2023-04-19T13:09:46.147Z,63.87
2023-04-19T13:10:48.079Z,64.53
2023-04-19T13:11:49.620Z,64.20
2023-04-19T13:12:51.254Z,64.12
2023-04-19T13:13:52.958Z,64.48
2023-04-19T13:14:54.761Z,61.55
2023-04-19T13:15:56.344Z,63.17
2023-04-19T13:16:58.132Z,64.09
2023-04-19T13:17:59.943Z,63.88
2023-04-19T13:19:01.684Z,62.76
2023-04-19T13:20:04.019Z,63.44
2023-04-19T13:21:08.029Z,63.68
2023-04-19T13:22:10.234Z,60.76
2023-04-19T13:23:11.992Z,60.32
2023-04-19T13:24:13.673Z,54.14
2023-04-19T13:25:15.232Z,56.71
2023-04-19T13:26:16.761Z,55.44
2023-04-19T13:27:18.287Z,54.66
2023-04-19T13:28:19.920Z,53.51
2023-04-19T13:29:21.471Z,56.46
2023-04-19T13:30:22.997Z,57.24
2023-04-19T13:31:25.437Z,56.87
2023-04-19T13:32:27.193Z,55.77
2023-04-19T13:33:29.100Z,54.49
2023-04-19T13:34:31.190Z,55.85
2023-04-19T13:35:32.748Z,52.21
2023-04-19T13:36:34.331Z,54.26
2023-04-19T13:37:35.903Z,55.72
2023-04-19T13:38:37.489Z,53.87
2023-04-19T13:39:39.376Z,54.01
2023-04-19T13:40:40.922Z,53.91
2023-04-19T13:41:42.530Z,54.38